createdAt,value
2022-12-31T00:00:47.283Z,1.39
2022-12-31T00:01:45.801Z,1.43
2022-12-31T00:02:45.892Z,1.34
2022-12-31T00:03:47.159Z,1.41
2022-12-31T00:04:46.534Z,1.42
2022-12-31T00:05:46.953Z,1.4
2022-12-31T00:06:47.782Z,1.37
2022-12-31T00:07:47.776Z,1.34
2022-12-31T00:08:48.722Z,1.36
2022-12-31T00:09:48.319Z,1.38
2022-12-31T00:10:48.932Z,1.36
2022-12-31T00:11:49.090Z,1.37
2022-12-31T00:12:49.664Z,1.33
2022-12-31T00:13:50.445Z,1.34
2022-12-31T00:14:50.088Z,1.39
2022-12-31T00:15:50.493Z,1.47
2022-12-31T00:16:51.549Z,1.43
2022-12-31T00:17:51.345Z,1.39
2022-12-31T00:18:53.788Z,1.39
2022-12-31T00:19:51.963Z,1.43
2022-12-31T00:20:52.381Z,1.42
2022-12-31T00:21:52.687Z,1.35
2022-12-31T00:22:53.102Z,1.35
2022-12-31T00:23:53.532Z,1.38
2022-12-31T00:24:53.853Z,1.39
2022-12-31T00:25:54.146Z,1.35
2022-12-31T00:26:54.465Z,1.34
2022-12-31T00:27:54.990Z,1.33
2022-12-31T00:28:56.754Z,1.39
2022-12-31T00:30:00.884Z,1.35
2022-12-31T00:30:56.692Z,1.35
2022-12-31T00:31:56.850Z,1.35
2022-12-31T00:32:57.375Z,1.32
2022-12-31T00:33:59.233Z,1.39
2022-12-31T00:34:57.999Z,1.36
2022-12-31T00:37:03.230Z,1.26
2022-12-31T00:38:03.670Z,1.26
2022-12-31T00:39:05.814Z,1.28
2022-12-31T00:40:05.201Z,1.28
2022-12-31T00:41:06.127Z,1.22
2022-12-31T00:42:05.332Z,1.22
2022-12-31T00:43:05.535Z,1.24
2022-12-31T00:44:06.055Z,1.19
2022-12-31T00:45:07.391Z,1.2
2022-12-31T00:46:07.253Z,1.16
2022-12-31T00:47:06.988Z,1.12
2022-12-31T00:48:07.405Z,1.1
2022-12-31T00:49:09.355Z,1.13
2022-12-31T00:50:08.745Z,1.09
2022-12-31T00:51:10.807Z,1.09
2022-12-31T00:52:08.873Z,1.07
2022-12-31T00:53:09.077Z,1.08
2022-12-31T00:54:09.506Z,1.11
2022-12-31T00:55:10.232Z,1.14
2022-12-31T00:56:19.544Z,1.15
2022-12-31T00:57:12.384Z,1.17
2022-12-31T00:58:12.478Z,1.18
2022-12-31T00:59:12.814Z,1.19
2022-12-31T01:00:14.458Z,1.25
2022-12-31T01:02:17.493Z,1.35
2022-12-31T01:03:17.670Z,1.39
2022-12-31T01:04:20.516Z,1.43
2022-12-31T01:05:18.291Z,1.41
2022-12-31T01:06:19.605Z,1.41
2022-12-31T01:07:18.996Z,1.34
2022-12-31T01:08:19.426Z,1.33
2022-12-31T01:09:20.033Z,1.38
2022-12-31T01:10:20.143Z,1.37
2022-12-31T01:11:20.881Z,1.3
2022-12-31T01:12:20.988Z,1.24
2022-12-31T01:13:21.805Z,1.3
2022-12-31T01:14:21.711Z,1.29
2022-12-31T01:15:22.028Z,1.26
2022-12-31T01:16:27.563Z,1.16
2022-12-31T01:17:24.900Z,1.25
2022-12-31T01:18:25.416Z,1.31
2022-12-31T01:19:28.702Z,1.23
2022-12-31T01:20:26.047Z,1.24
2022-12-31T01:21:28.297Z,1.28
2022-12-31T01:22:26.875Z,1.29
2022-12-31T01:23:27.192Z,1.26
2022-12-31T01:24:27.514Z,1.28
2022-12-31T01:25:28.025Z,1.28
2022-12-31T01:26:28.557Z,1.25
2022-12-31T01:27:29.158Z,1.21
2022-12-31T01:28:29.177Z,1.25
2022-12-31T01:29:29.373Z,1.25
2022-12-31T01:30:29.900Z,1.23
2022-12-31T01:31:30.344Z,1.24
2022-12-31T01:32:30.423Z,1.24
2022-12-31T01:33:30.958Z,1.21
2022-12-31T01:34:31.462Z,1.24
2022-12-31T01:35:35.579Z,1.27
2022-12-31T01:36:34.644Z,1.26
2022-12-31T01:37:33.318Z,1.26
2022-12-31T01:38:35.086Z,1.26
2022-12-31T01:39:34.165Z,1.31
2022-12-31T01:40:38.367Z,1.3
2022-12-31T01:41:41.547Z,1.28
2022-12-31T01:42:39.099Z,1.27
2022-12-31T01:44:53.881Z,1.25
2022-12-31T01:45:49.424Z,1.29
2022-12-31T01:47:00.215Z,1.26
2022-12-31T01:47:51.738Z,1.23
2022-12-31T01:48:52.129Z,1.24
2022-12-31T01:49:59.531Z,1.25
2022-12-31T01:50:53.784Z,1.25
2022-12-31T01:52:02.291Z,1.26
2022-12-31T01:52:59.224Z,1.26
2022-12-31T01:53:57.704Z,1.32
2022-12-31T01:56:00.686Z,1.37
2022-12-31T01:57:01.502Z,1.36
2022-12-31T02:00:05.784Z,1.31
2022-12-31T02:01:06.797Z,1.27
2022-12-31T02:02:05.986Z,1.28
2022-12-31T02:03:07.677Z,1.29
2022-12-31T02:07:13.039Z,1.29
2022-12-31T02:08:13.465Z,1.27
2022-12-31T02:09:13.777Z,1.33
2022-12-31T02:10:14.209Z,1.33
2022-12-31T02:12:15.672Z,1.32
2022-12-31T02:13:15.905Z,1.34
2022-12-31T02:31:21.897Z,1.31
2022-12-31T02:36:36.492Z,1.3
2022-12-31T02:37:32.389Z,1.27
2022-12-31T02:38:40.689Z,1.28
2022-12-31T02:39:34.341Z,1.27
2022-12-31T02:40:35.603Z,1.29
2022-12-31T02:41:33.842Z,1.29
2022-12-31T02:42:34.258Z,1.2
2022-12-31T02:43:34.480Z,1.23
2022-12-31T02:44:36.837Z,1.21
2022-12-31T02:45:40.755Z,1.22
2022-12-31T02:46:49.198Z,1.22
2022-12-31T03:00:24.418Z,1.16
2022-12-31T03:01:30.702Z,1.15
2022-12-31T03:02:33.183Z,1.09
2022-12-31T03:03:31.537Z,1.09
2022-12-31T03:04:33.712Z,1.08
2022-12-31T03:05:41.682Z,1.07
2022-12-31T03:06:34.547Z,1.09
2022-12-31T03:07:34.538Z,0.99
2022-12-31T03:08:34.846Z,0.98
2022-12-31T03:09:36.287Z,1
2022-12-31T03:10:36.093Z,1.1
2022-12-31T03:11:35.983Z,1.12
2022-12-31T03:12:37.014Z,1.09
2022-12-31T03:13:36.576Z,1.06
2022-12-31T03:14:37.147Z,1.08
2022-12-31T03:15:37.341Z,1.18
2022-12-31T03:16:37.685Z,1.17
2022-12-31T03:17:37.969Z,1.17
2022-12-31T03:18:38.494Z,1.14
2022-12-31T03:19:38.715Z,1.14
2022-12-31T03:20:50.485Z,1.14
2022-12-31T03:21:42.873Z,1.09
2022-12-31T03:22:43.428Z,1.03
2022-12-31T03:23:45.108Z,1.03
2022-12-31T03:24:44.166Z,1.04
2022-12-31T03:25:44.598Z,1.07
2022-12-31T03:26:44.805Z,1
2022-12-31T03:27:45.819Z,1
2022-12-31T03:28:45.428Z,0.95
2022-12-31T03:29:45.743Z,0.92
2022-12-31T03:30:49.444Z,0.92
2022-12-31T03:31:47.031Z,0.93
2022-12-31T03:32:48.735Z,0.96
2022-12-31T03:33:47.394Z,0.99
2022-12-31T03:34:48.227Z,0.94
2022-12-31T03:35:49.465Z,0.95
2022-12-31T03:36:48.750Z,0.95
2022-12-31T03:37:50.297Z,0.95
2022-12-31T03:38:52.716Z,0.95
2022-12-31T03:39:50.517Z,0.93
2022-12-31T03:40:52.728Z,0.92
2022-12-31T03:41:51.236Z,0.89
2022-12-31T03:42:51.665Z,0.89
2022-12-31T03:43:51.862Z,0.87
2022-12-31T03:44:52.382Z,0.83
2022-12-31T03:45:54.180Z,0.78
2022-12-31T03:46:53.213Z,0.78
2022-12-31T03:47:53.345Z,0.73
2022-12-31T03:48:53.750Z,0.76
2022-12-31T03:49:54.034Z,0.77
2022-12-31T03:50:54.391Z,0.76
2022-12-31T03:51:54.895Z,0.77
2022-12-31T03:52:55.298Z,0.75
2022-12-31T03:53:55.619Z,0.72
2022-12-31T03:54:55.944Z,0.68
2022-12-31T03:55:56.151Z,0.61
2022-12-31T03:57:00.078Z,0.58
2022-12-31T03:57:58.105Z,0.62
2022-12-31T03:58:58.425Z,0.65
2022-12-31T03:59:58.735Z,0.69
2022-12-31T04:00:59.303Z,0.69
2022-12-31T04:01:59.576Z,0.67
2022-12-31T04:02:59.865Z,0.66
2022-12-31T04:04:00.504Z,0.66
2022-12-31T04:05:00.423Z,0.65
2022-12-31T04:06:00.933Z,0.68
2022-12-31T04:07:01.435Z,0.73
2022-12-31T04:08:01.655Z,0.72
2022-12-31T04:09:01.853Z,0.7
2022-12-31T04:10:03.198Z,0.67
2022-12-31T04:11:02.694Z,0.72
2022-12-31T04:12:03.028Z,0.75
2022-12-31T04:13:03.429Z,0.75
2022-12-31T04:14:03.650Z,0.76
2022-12-31T04:15:05.199Z,0.71
2022-12-31T04:16:04.922Z,0.64
2022-12-31T04:17:04.794Z,0.65
2022-12-31T04:18:05.618Z,0.65
2022-12-31T04:19:05.417Z,0.68
2022-12-31T04:20:06.863Z,0.71
2022-12-31T04:21:06.445Z,0.66
2022-12-31T04:22:06.629Z,0.69
2022-12-31T04:23:06.978Z,0.72
2022-12-31T04:24:08.334Z,0.69
2022-12-31T04:25:08.733Z,0.69
2022-12-31T04:26:08.029Z,0.71
2022-12-31T04:27:08.436Z,0.73
2022-12-31T04:28:08.856Z,0.71
2022-12-31T04:29:09.178Z,0.69
2022-12-31T04:30:11.233Z,0.67
2022-12-31T04:31:09.698Z,0.67
2022-12-31T04:32:10.884Z,0.71
2022-12-31T04:33:10.835Z,0.69
2022-12-31T04:34:10.927Z,0.69
2022-12-31T04:35:11.699Z,0.65
2022-12-31T04:36:11.867Z,0.62
2022-12-31T04:37:11.871Z,0.66
2022-12-31T04:38:12.205Z,0.66
2022-12-31T04:39:12.707Z,0.67
2022-12-31T04:40:13.227Z,0.68
2022-12-31T04:41:13.246Z,0.64
2022-12-31T04:42:13.769Z,0.62
2022-12-31T04:43:13.965Z,0.65
2022-12-31T04:44:14.494Z,0.66
2022-12-31T04:45:15.017Z,0.6
2022-12-31T04:46:15.871Z,0.56
2022-12-31T04:47:20.223Z,0.57
2022-12-31T04:48:15.924Z,0.53
2022-12-31T04:49:16.768Z,0.54
2022-12-31T04:50:16.775Z,0.57
2022-12-31T04:51:17.092Z,0.59
2022-12-31T04:52:17.416Z,0.51
2022-12-31T04:53:17.725Z,0.47
2022-12-31T04:54:18.149Z,0.45
2022-12-31T04:55:18.365Z,0.45
2022-12-31T04:56:19.073Z,0.44
2022-12-31T04:57:19.185Z,0.42
2022-12-31T04:58:19.489Z,0.43
2022-12-31T04:59:19.921Z,0.47
2022-12-31T05:00:20.539Z,0.48
2022-12-31T05:01:21.039Z,0.46
2022-12-31T05:02:21.076Z,0.44
2022-12-31T05:03:23.468Z,0.41
2022-12-31T05:04:21.890Z,0.44
2022-12-31T05:05:22.108Z,0.45
2022-12-31T05:06:23.444Z,0.45
2022-12-31T05:07:22.611Z,0.45
2022-12-31T05:08:22.943Z,0.48
2022-12-31T05:09:23.463Z,0.52
2022-12-31T05:10:23.776Z,0.47
2022-12-31T05:11:24.096Z,0.48
2022-12-31T05:12:24.407Z,0.46
2022-12-31T05:13:31.057Z,0.44
2022-12-31T05:14:25.934Z,0.5
2022-12-31T05:15:25.937Z,0.47
2022-12-31T05:16:26.272Z,0.41
2022-12-31T05:17:26.478Z,0.37
2022-12-31T05:18:27.163Z,0.36
2022-12-31T05:19:27.307Z,0.38
2022-12-31T05:20:27.626Z,0.41
2022-12-31T05:21:27.850Z,0.43
2022-12-31T05:22:28.356Z,0.41
2022-12-31T05:23:29.388Z,0.4
2022-12-31T05:24:29.400Z,0.38
2022-12-31T05:25:29.469Z,0.36
2022-12-31T05:26:29.820Z,0.35
2022-12-31T05:27:30.336Z,0.35
2022-12-31T05:28:30.446Z,0.31
2022-12-31T05:29:30.979Z,0.29
2022-12-31T05:30:31.106Z,0.28
2022-12-31T05:31:31.597Z,0.28
2022-12-31T05:32:32.227Z,0.29
2022-12-31T05:33:32.105Z,0.25
2022-12-31T05:34:32.702Z,0.25
2022-12-31T05:35:32.949Z,0.27
2022-12-31T05:36:33.405Z,0.28
2022-12-31T05:37:34.176Z,0.28
2022-12-31T05:38:33.900Z,0.29
2022-12-31T05:39:35.142Z,0.3
2022-12-31T05:40:34.932Z,0.32
2022-12-31T05:41:35.039Z,0.35
2022-12-31T05:42:35.656Z,0.34
2022-12-31T05:43:35.655Z,0.4
2022-12-31T05:44:36.191Z,0.37
2022-12-31T05:45:36.447Z,0.3
2022-12-31T05:46:36.801Z,0.32
2022-12-31T05:47:37.227Z,0.33
2022-12-31T05:48:37.432Z,0.32
2022-12-31T05:49:37.866Z,0.31
2022-12-31T05:50:38.263Z,0.3
2022-12-31T05:51:38.795Z,0.32
2022-12-31T05:52:39.093Z,0.27
2022-12-31T05:53:39.217Z,0.27
2022-12-31T05:54:39.519Z,0.29
2022-12-31T05:55:40.145Z,0.28
2022-12-31T05:56:40.572Z,0.3
2022-12-31T05:57:40.990Z,0.25
2022-12-31T05:58:41.095Z,0.26
2022-12-31T05:59:41.297Z,0.27
2022-12-31T06:00:42.431Z,0.27
2022-12-31T06:01:42.155Z,0.29
2022-12-31T06:02:42.578Z,0.27
2022-12-31T06:03:42.903Z,0.27
2022-12-31T06:04:43.390Z,0.25
2022-12-31T06:05:43.811Z,0.25
2022-12-31T06:06:43.910Z,0.25
2022-12-31T06:07:44.217Z,0.25
2022-12-31T06:08:44.556Z,0.24
2022-12-31T06:09:44.838Z,0.24
2022-12-31T06:10:45.272Z,0.24
2022-12-31T06:11:45.864Z,0.24
2022-12-31T06:12:46.191Z,0.21
2022-12-31T06:13:46.416Z,0.22
2022-12-31T06:14:46.511Z,0.22
2022-12-31T06:15:47.182Z,0.21
2022-12-31T06:16:47.257Z,0.23
2022-12-31T06:17:47.760Z,0.25
2022-12-31T06:18:48.303Z,0.27
2022-12-31T06:19:48.816Z,0.27
2022-12-31T06:20:48.819Z,0.26
2022-12-31T06:21:49.147Z,0.26
2022-12-31T06:22:49.641Z,0.26
2022-12-31T06:23:50.159Z,0.26
2022-12-31T06:24:50.066Z,0.27
2022-12-31T06:25:50.685Z,0.27
2022-12-31T06:26:50.798Z,0.27
2022-12-31T06:27:51.228Z,0.28
2022-12-31T06:28:51.742Z,0.3
2022-12-31T06:29:51.937Z,0.31
2022-12-31T06:31:02.559Z,0.33
2022-12-31T06:31:55.141Z,0.33
2022-12-31T06:32:55.969Z,0.34
2022-12-31T06:33:55.971Z,0.35
2022-12-31T06:34:56.179Z,0.35
2022-12-31T06:35:57.839Z,0.35
2022-12-31T06:36:56.810Z,0.33
2022-12-31T06:37:57.316Z,0.34
2022-12-31T06:38:57.628Z,0.38
2022-12-31T06:39:58.058Z,0.36
2022-12-31T06:40:58.256Z,0.3
2022-12-31T06:41:58.781Z,0.3
2022-12-31T06:43:00.279Z,0.33
2022-12-31T06:43:59.412Z,0.33
2022-12-31T06:44:59.916Z,0.34
2022-12-31T06:46:04.574Z,0.38
2022-12-31T06:47:02.191Z,0.37
2022-12-31T06:48:02.300Z,0.38
2022-12-31T06:49:02.825Z,0.38
2022-12-31T06:50:03.531Z,0.38
2022-12-31T06:51:05.290Z,0.39
2022-12-31T06:52:04.378Z,0.39
2022-12-31T06:53:04.488Z,0.39
2022-12-31T06:54:04.506Z,0.37
2022-12-31T06:55:06.116Z,0.42
2022-12-31T06:56:07.577Z,0.43
2022-12-31T06:57:06.248Z,0.43
2022-12-31T06:58:06.462Z,0.5
2022-12-31T06:59:06.893Z,0.53
2022-12-31T07:00:07.699Z,0.5
2022-12-31T07:20:05.488Z,0.57
2022-12-31T07:20:58.617Z,0.57
2022-12-31T07:21:59.762Z,0.52
2022-12-31T07:22:59.253Z,0.51
2022-12-31T07:23:59.558Z,0.51
2022-12-31T07:24:59.991Z,0.53
2022-12-31T07:39:46.677Z,0.65
2022-12-31T07:46:59.203Z,0.8
2022-12-31T07:47:46.993Z,0.84
2022-12-31T07:48:47.547Z,0.83
2022-12-31T07:49:47.864Z,0.81
2022-12-31T07:50:48.163Z,0.83
2022-12-31T07:51:48.579Z,0.86
2022-12-31T07:52:48.964Z,0.87
2022-12-31T07:53:48.698Z,0.81
2022-12-31T07:54:49.113Z,0.79
2022-12-31T07:56:00.814Z,0.82
2022-12-31T07:56:53.111Z,0.84
2022-12-31T07:58:03.529Z,0.88
2022-12-31T08:01:09.788Z,0.95
2022-12-31T08:12:45.562Z,1.02
2022-12-31T08:13:45.146Z,1
2022-12-31T08:14:47.121Z,1.01
2022-12-31T08:15:45.369Z,1.03
2022-12-31T08:16:46.320Z,1.06
2022-12-31T08:17:46.420Z,1.09
2022-12-31T08:18:46.203Z,1.1
2022-12-31T08:19:46.827Z,1.11
2022-12-31T08:41:48.221Z,1.28
2022-12-31T08:45:57.995Z,1.36
2022-12-31T08:49:04.901Z,1.37
2022-12-31T08:50:05.762Z,1.43
2022-12-31T08:51:05.943Z,1.45
2022-12-31T08:53:09.896Z,1.51
2022-12-31T08:54:13.064Z,1.53
2022-12-31T09:00:21.403Z,1.44
2022-12-31T09:01:25.125Z,1.44
2022-12-31T09:06:36.393Z,1.51
2022-12-31T09:07:45.606Z,1.5
2022-12-31T09:17:07.576Z,1.44
2022-12-31T09:18:00.727Z,1.5
2022-12-31T09:19:00.624Z,1.56
2022-12-31T09:20:01.451Z,1.56
2022-12-31T09:21:01.662Z,1.45
2022-12-31T09:22:02.084Z,1.46
2022-12-31T09:23:02.505Z,1.52
2022-12-31T09:24:08.955Z,1.52
2022-12-31T09:25:07.937Z,1.51
2022-12-31T09:30:26.408Z,1.49
2022-12-31T09:34:47.522Z,1.55
2022-12-31T09:36:48.529Z,1.6
2022-12-31T09:39:49.489Z,1.6
2022-12-31T11:58:57.420Z,1.76
2022-12-31T11:59:59.856Z,1.8
2022-12-31T12:03:07.696Z,1.79
2022-12-31T12:04:06.485Z,1.77
2022-12-31T12:05:11.007Z,1.8
2022-12-31T12:06:13.196Z,1.76
2022-12-31T12:07:15.584Z,1.75
2022-12-31T12:08:13.922Z,1.78
2022-12-31T12:10:35.195Z,1.77
2022-12-31T12:12:20.196Z,1.63
2022-12-31T12:15:33.939Z,1.73
2022-12-31T12:16:31.746Z,1.71
2022-12-31T12:17:34.166Z,1.77
2022-12-31T12:20:40.834Z,1.73
2022-12-31T12:25:01.664Z,1.78
2022-12-31T12:25:49.056Z,1.78
2022-12-31T12:26:49.570Z,1.68
2022-12-31T12:27:49.991Z,1.67
2022-12-31T12:28:50.171Z,1.67
2022-12-31T12:29:50.435Z,1.69
2022-12-31T12:31:00.503Z,1.67
2022-12-31T12:32:01.593Z,1.62
2022-12-31T12:32:59.555Z,1.67
2022-12-31T12:33:56.996Z,1.64
2022-12-31T12:34:57.412Z,1.62
2022-12-31T12:37:02.443Z,1.67
2022-12-31T12:39:07.059Z,1.62
2022-12-31T12:40:08.261Z,1.73
2022-12-31T12:44:16.111Z,1.62
2022-12-31T12:45:21.024Z,1.69
2022-12-31T12:46:28.029Z,1.7
2022-12-31T12:47:20.624Z,1.63
2022-12-31T13:28:25.814Z,1.6
2022-12-31T13:29:27.657Z,1.63
2022-12-31T13:30:38.225Z,1.58
2022-12-31T13:31:36.775Z,1.58
2022-12-31T13:33:37.285Z,1.53
2022-12-31T13:34:40.497Z,1.54
2022-12-31T13:36:42.940Z,1.62
2022-12-31T13:37:42.676Z,1.61
2022-12-31T13:38:50.252Z,1.61
2022-12-31T13:39:45.097Z,1.65
2022-12-31T13:45:02.752Z,1.61
2022-12-31T13:48:12.595Z,1.6
2022-12-31T13:51:24.355Z,1.56
2022-12-31T13:59:48.647Z,1.67
2022-12-31T14:00:48.127Z,1.63
2022-12-31T14:08:08.071Z,1.64
2022-12-31T14:09:14.521Z,1.67
2022-12-31T14:10:16.686Z,1.66
2022-12-31T14:15:37.801Z,1.61
2022-12-31T14:23:55.985Z,1.71
2022-12-31T14:24:50.051Z,1.67
2022-12-31T14:27:54.985Z,1.6
2022-12-31T14:50:58.920Z,1.65
2022-12-31T14:54:01.740Z,1.7
2022-12-31T14:56:07.653Z,1.59
2022-12-31T15:01:24.917Z,1.67
2022-12-31T15:05:38.432Z,1.6
2022-12-31T15:23:25.333Z,1.77
2022-12-31T15:24:22.797Z,1.72
2022-12-31T15:28:34.607Z,1.67
2022-12-31T15:31:36.422Z,1.58
2022-12-31T15:32:42.982Z,1.55
2022-12-31T15:34:37.308Z,1.59
2022-12-31T15:37:43.977Z,1.61
2022-12-31T15:38:45.273Z,1.66
2022-12-31T15:39:44.832Z,1.64
2022-12-31T15:40:50.141Z,1.6
2022-12-31T15:42:35.549Z,1.62
2022-12-31T15:45:57.915Z,1.71
2022-12-31T15:48:02.076Z,1.72
2022-12-31T15:51:13.126Z,1.76
2022-12-31T15:54:25.447Z,1.7
2022-12-31T15:57:33.767Z,1.76
2022-12-31T15:58:33.475Z,1.77
2022-12-31T15:59:31.938Z,1.8
2022-12-31T16:02:35.661Z,1.74
2022-12-31T16:03:35.082Z,1.72
2022-12-31T16:04:35.354Z,1.75
2022-12-31T16:05:35.867Z,1.76
2022-12-31T16:06:40.065Z,1.73
2022-12-31T16:07:39.256Z,1.7
2022-12-31T16:08:38.859Z,1.73
2022-12-31T16:09:38.449Z,1.73
2022-12-31T16:10:38.976Z,1.76
2022-12-31T16:11:40.821Z,1.75
2022-12-31T16:12:44.619Z,1.76
2022-12-31T16:18:57.564Z,1.7
2022-12-31T16:19:58.588Z,1.8
2022-12-31T16:20:57.480Z,1.77
2022-12-31T16:22:01.678Z,1.77
2022-12-31T16:23:01.062Z,1.76
2022-12-31T16:24:03.226Z,1.8
2022-12-31T16:25:29.576Z,1.87
2022-12-31T16:26:04.362Z,1.86
2022-12-31T16:31:19.292Z,1.67
2022-12-31T16:32:19.120Z,1.7
2022-12-31T16:33:17.321Z,1.78
2022-12-31T16:34:20.502Z,1.77
2022-12-31T16:35:30.237Z,1.76
2022-12-31T16:36:23.898Z,1.77
2022-12-31T16:37:24.101Z,1.8
2022-12-31T16:38:30.961Z,1.83
2022-12-31T16:39:34.877Z,1.87
2022-12-31T16:40:32.524Z,1.87
2022-12-31T16:41:42.772Z,1.9
2022-12-31T16:42:44.151Z,1.88
2022-12-31T16:43:41.748Z,1.85
2022-12-31T16:44:39.699Z,1.84
2022-12-31T16:45:39.816Z,1.88
2022-12-31T16:46:41.212Z,1.86
2022-12-31T16:47:41.884Z,1.9
2022-12-31T16:48:45.363Z,1.87
2022-12-31T16:49:43.518Z,1.81
2022-12-31T16:50:50.821Z,1.84
2022-12-31T16:51:48.765Z,1.79
2022-12-31T16:52:52.861Z,1.78
2022-12-31T16:53:51.025Z,1.81
2022-12-31T16:54:51.345Z,1.82
2022-12-31T16:56:54.130Z,1.71
2022-12-31T16:59:02.597Z,1.75
2022-12-31T17:00:06.728Z,1.78
2022-12-31T17:02:16.304Z,1.8
2022-12-31T17:06:19.485Z,1.86
2022-12-31T17:12:28.955Z,1.83
2022-12-31T17:13:32.619Z,1.89
2022-12-31T17:14:29.972Z,1.77
2022-12-31T17:16:30.866Z,1.9
2022-12-31T17:17:34.726Z,1.93
2022-12-31T17:18:37.992Z,1.96
2022-12-31T17:19:47.728Z,1.94
2022-12-31T17:20:40.268Z,1.91
2022-12-31T17:21:47.531Z,1.92
2022-12-31T17:22:45.191Z,1.87
2022-12-31T17:23:54.189Z,1.88
2022-12-31T17:24:49.096Z,1.8
2022-12-31T17:25:47.147Z,1.83
2022-12-31T17:26:47.457Z,1.83
2022-12-31T17:27:58.111Z,1.82
2022-12-31T17:28:52.419Z,1.82
2022-12-31T17:29:50.958Z,1.89
2022-12-31T17:30:51.400Z,1.9
2022-12-31T17:35:00.416Z,1.77
2022-12-31T17:37:19.064Z,1.79
2022-12-31T17:39:23.907Z,1.78
2022-12-31T17:42:22.497Z,1.82
2022-12-31T17:43:15.420Z,1.8
2022-12-31T17:44:22.290Z,1.76
2022-12-31T17:45:21.679Z,1.81
2022-12-31T17:46:20.973Z,1.8
2022-12-31T17:47:20.672Z,1.86
2022-12-31T17:48:23.839Z,1.91
2022-12-31T17:49:30.101Z,1.87
2022-12-31T17:50:27.256Z,1.89
2022-12-31T17:51:24.901Z,1.9
2022-12-31T17:52:25.513Z,1.96
2022-12-31T17:53:25.632Z,1.94
2022-12-31T17:54:25.827Z,1.93
2022-12-31T17:55:27.168Z,1.93
2022-12-31T17:56:27.078Z,1.92
2022-12-31T17:57:28.419Z,1.82
2022-12-31T17:58:37.945Z,1.81
2022-12-31T17:59:32.740Z,1.91
2022-12-31T18:00:31.022Z,1.93
2022-12-31T18:01:31.269Z,1.94
2022-12-31T18:02:31.837Z,1.92
2022-12-31T18:03:32.030Z,1.93
2022-12-31T18:04:32.354Z,1.9
2022-12-31T18:05:32.665Z,1.89
2022-12-31T18:06:33.073Z,1.87
2022-12-31T18:07:33.501Z,1.93
2022-12-31T18:08:33.717Z,1.92
2022-12-31T18:09:34.428Z,1.91
2022-12-31T18:10:37.005Z,1.9
2022-12-31T18:11:36.812Z,1.89
2022-12-31T18:12:35.896Z,1.87
2022-12-31T18:13:35.788Z,1.88
2022-12-31T18:14:36.655Z,1.88
2022-12-31T18:15:36.419Z,1.87
2022-12-31T18:16:36.789Z,1.9
2022-12-31T18:17:36.947Z,1.89
2022-12-31T18:18:37.360Z,1.9
2022-12-31T18:20:03.500Z,1.96
2022-12-31T18:20:40.041Z,1.96
2022-12-31T18:21:41.996Z,1.99
2022-12-31T18:22:43.224Z,1.98
2022-12-31T18:23:44.152Z,1.96
2022-12-31T18:24:42.117Z,1.92
2022-12-31T18:26:42.456Z,1.89
2022-12-31T18:27:42.850Z,1.81
2022-12-31T18:28:43.981Z,1.82
2022-12-31T18:29:43.686Z,1.88
2022-12-31T18:30:45.635Z,1.91
2022-12-31T18:32:46.687Z,1.87
2022-12-31T18:33:46.984Z,1.85
2022-12-31T18:34:47.298Z,1.81
2022-12-31T18:36:08.348Z,1.81
2022-12-31T18:36:49.469Z,1.87
2022-12-31T18:37:49.979Z,1.85
2022-12-31T18:38:51.831Z,1.91
2022-12-31T18:39:50.777Z,1.93
2022-12-31T18:41:52.244Z,1.97
2022-12-31T18:42:59.684Z,2
2022-12-31T18:43:55.572Z,1.91
2022-12-31T18:44:55.646Z,1.94
2022-12-31T18:45:56.002Z,1.91
2022-12-31T18:46:56.594Z,1.92
2022-12-31T18:47:56.595Z,1.92
2022-12-31T18:48:57.011Z,1.94
2022-12-31T18:49:57.323Z,1.96
2022-12-31T18:50:57.636Z,1.84
2022-12-31T18:51:58.049Z,1.89
2022-12-31T18:52:58.583Z,1.91
2022-12-31T18:53:59.300Z,1.96
2022-12-31T18:54:59.203Z,1.95
2022-12-31T18:55:59.519Z,1.96
2022-12-31T18:56:59.933Z,1.96
2022-12-31T18:58:00.237Z,1.94
2022-12-31T18:59:00.659Z,1.98
2022-12-31T19:00:01.087Z,1.97
2022-12-31T19:01:01.556Z,1.88
2022-12-31T19:02:02.200Z,1.85
2022-12-31T19:03:02.474Z,1.93
2022-12-31T19:04:05.095Z,1.94
2022-12-31T19:05:02.856Z,1.98
2022-12-31T19:06:03.160Z,1.93
2022-12-31T19:07:03.721Z,1.95
2022-12-31T19:08:04.620Z,1.97
2022-12-31T19:09:13.215Z,2.03
2022-12-31T19:10:06.990Z,2
2022-12-31T19:11:06.372Z,2
2022-12-31T19:12:07.099Z,1.97
2022-12-31T19:13:09.873Z,1.99
2022-12-31T19:16:11.695Z,1.91
2022-12-31T19:17:11.937Z,1.92
2022-12-31T19:18:12.270Z,1.94
2022-12-31T19:19:13.040Z,1.99
2022-12-31T19:20:13.197Z,1.95
2022-12-31T19:22:15.965Z,2.03
2022-12-31T19:23:19.162Z,1.94
2022-12-31T19:25:28.592Z,1.98
2022-12-31T19:26:22.442Z,1.97
2022-12-31T19:27:21.435Z,2
2022-12-31T19:28:24.417Z,2
2022-12-31T19:29:27.724Z,2.02
2022-12-31T19:30:28.312Z,1.98
2022-12-31T19:31:25.878Z,1.94
2022-12-31T19:32:26.168Z,2.03
2022-12-31T19:33:26.591Z,1.99
2022-12-31T19:34:26.914Z,2
2022-12-31T19:35:27.730Z,2
2022-12-31T19:36:28.037Z,1.94
2022-12-31T19:37:28.149Z,1.92
2022-12-31T19:38:28.685Z,1.99
2022-12-31T19:39:28.784Z,1.99
2022-12-31T19:40:30.834Z,1.98
2022-12-31T19:41:29.711Z,1.96
2022-12-31T19:42:29.940Z,1.93
2022-12-31T19:43:30.233Z,1.96
2022-12-31T19:44:30.672Z,1.95
2022-12-31T19:45:31.077Z,1.92
2022-12-31T19:46:31.483Z,1.96
2022-12-31T19:47:31.699Z,1.97
2022-12-31T19:48:33.119Z,1.95
2022-12-31T19:49:32.426Z,1.95
2022-12-31T19:50:32.851Z,1.96
2022-12-31T19:51:33.372Z,1.97
2022-12-31T19:52:33.582Z,1.99
2022-12-31T19:53:33.880Z,1.97
2022-12-31T19:54:34.110Z,1.97
2022-12-31T19:55:34.510Z,1.97
2022-12-31T19:56:35.356Z,1.99
2022-12-31T19:57:35.559Z,2.04
2022-12-31T19:58:35.866Z,2.04
2022-12-31T19:59:36.177Z,1.98
2022-12-31T20:00:36.501Z,2
2022-12-31T20:01:37.213Z,1.99
2022-12-31T20:02:37.699Z,2
2022-12-31T20:03:37.583Z,2
2022-12-31T20:04:37.950Z,2
2022-12-31T20:05:38.264Z,2.04
2022-12-31T20:06:38.691Z,2.01
2022-12-31T20:07:39.200Z,2.07
2022-12-31T20:08:40.040Z,2.04
2022-12-31T20:09:39.835Z,1.93
2022-12-31T20:10:41.386Z,2.01
2022-12-31T20:11:40.462Z,1.99
2022-12-31T20:12:44.581Z,1.97
2022-12-31T20:13:43.230Z,1.93
2022-12-31T20:14:42.928Z,2.05
2022-12-31T20:15:43.036Z,2.09
2022-12-31T20:16:43.581Z,2.04
2022-12-31T20:17:43.871Z,2
2022-12-31T20:18:46.309Z,2.05
2022-12-31T20:19:44.620Z,2.12
2022-12-31T20:20:55.128Z,2.1
2022-12-31T20:21:48.307Z,2.12
2022-12-31T20:22:48.614Z,2.12
2022-12-31T20:23:50.367Z,2.08
2022-12-31T20:24:49.543Z,2.08
2022-12-31T20:26:02.060Z,2.06
2022-12-31T20:26:54.685Z,2.03
2022-12-31T20:27:55.927Z,2.05
2022-12-31T20:28:56.230Z,1.97
2022-12-31T20:29:55.635Z,1.96
2022-12-31T20:30:55.992Z,1.97
2022-12-31T20:31:56.987Z,1.88
2022-12-31T20:32:56.667Z,1.99
2022-12-31T20:33:57.090Z,2.03
2022-12-31T20:34:57.910Z,2.04
2022-12-31T20:36:05.187Z,2.03
2022-12-31T20:37:02.636Z,2.03
2022-12-31T20:38:02.930Z,2.06
2022-12-31T20:39:03.877Z,2.13
2022-12-31T20:40:04.287Z,2.15
2022-12-31T20:42:08.710Z,2.11
2022-12-31T20:43:08.716Z,2.11
2022-12-31T20:44:09.302Z,2.05
2022-12-31T20:45:10.901Z,1.97
2022-12-31T20:46:16.318Z,2.12
2022-12-31T20:47:13.985Z,2.09
2022-12-31T20:48:14.380Z,2.06
2022-12-31T20:49:14.810Z,2.04
2022-12-31T20:50:15.280Z,2.05
2022-12-31T20:51:17.268Z,2.09
2022-12-31T20:52:15.846Z,2.07
2022-12-31T20:53:16.055Z,2.02
2022-12-31T20:54:16.675Z,2.08
2022-12-31T20:55:17.093Z,2.17
2022-12-31T20:56:17.712Z,2.14
2022-12-31T20:57:17.713Z,2.11
2022-12-31T20:58:18.438Z,2.08
2022-12-31T20:59:18.250Z,2.15
2022-12-31T21:00:19.385Z,2.14
2022-12-31T21:01:19.464Z,2.12
2022-12-31T21:02:21.415Z,2.14
2022-12-31T21:04:02.461Z,2.13
2022-12-31T21:04:22.119Z,2.13
2022-12-31T21:05:22.497Z,2.11
2022-12-31T21:06:22.891Z,2.19
2022-12-31T21:07:23.320Z,2.21
2022-12-31T21:08:23.508Z,2.16
2022-12-31T21:09:24.051Z,2.08
2022-12-31T21:10:24.255Z,2.07
2022-12-31T21:11:24.684Z,2.07
2022-12-31T21:12:25.278Z,2.04
2022-12-31T21:13:25.265Z,2.09
2022-12-31T21:14:25.712Z,2.06
2022-12-31T21:15:26.073Z,2.14
2022-12-31T21:16:27.071Z,2.15
2022-12-31T21:17:26.760Z,2.07
2022-12-31T21:18:27.087Z,2.1
2022-12-31T21:19:27.489Z,2.17
2022-12-31T21:20:27.912Z,2.23
2022-12-31T21:21:28.421Z,2.21
2022-12-31T21:22:28.529Z,2.2
2022-12-31T21:23:28.948Z,2.21
2022-12-31T21:24:29.155Z,2.21
2022-12-31T21:25:29.574Z,2.2
2022-12-31T21:26:30.408Z,2.15
2022-12-31T21:27:30.810Z,2.13
2022-12-31T21:28:31.112Z,2.15
2022-12-31T21:29:34.567Z,2.12
2022-12-31T21:30:32.887Z,2.25
2022-12-31T21:31:33.594Z,2.31
2022-12-31T21:32:33.712Z,2.3
2022-12-31T21:33:35.023Z,2.24
2022-12-31T21:34:34.555Z,2.26
2022-12-31T21:35:47.032Z,2.24
2022-12-31T21:36:36.217Z,2.29
2022-12-31T21:37:58.533Z,2.33
2022-12-31T21:38:38.363Z,2.38
2022-12-31T21:39:38.575Z,2.35
2022-12-31T21:40:38.796Z,2.3
2022-12-31T21:41:39.429Z,2.25
2022-12-31T21:42:39.624Z,2.19
2022-12-31T21:43:40.146Z,2.18